sensor_id;sensor_type;location;lat;lon;timestamp;temperature;humidity
29501;DHT22;16450;50.288;10.966;2023-08-01T00:01:56;16.70;99.90
29501;DHT22;16450;50.288;10.966;2023-08-01T00:04:58;16.60;99.90
29501;DHT22;16450;50.288;10.966;2023-08-01T00:07:59;16.60;99.90
29501;DHT22;16450;50.288;10.966;2023-08-01T00:11:01;16.60;99.90
29501;DHT22;16450;50.288;10.966;2023-08-01T00:14:03;16.60;99.90
29501;DHT22;16450;50.288;10.966;2023-08-01T00:17:06;16.50;99.90
29501;DHT22;16450;50.288;10.966;2023-08-01T00:20:08;16.50;99.90
29501;DHT22;16450;50.288;10.966;2023-08-01T00:23:10;16.50;99.90
29501;DHT22;16450;50.288;10.966;2023-08-01T00:26:13;16.50;99.90
29501;DHT22;16450;50.288;10.966;2023-08-01T00:29:15;16.50;99.90
29501;DHT22;16450;50.288;10.966;2023-08-01T00:32:17;16.50;99.90
29501;DHT22;16450;50.288;10.966;2023-08-01T00:35:18;16.50;99.90
29501;DHT22;16450;50.288;10.966;2023-08-01T00:38:20;16.40;99.90
29501;DHT22;16450;50.288;10.966;2023-08-01T00:41:22;16.40;99.90
29501;DHT22;16450;50.288;10.966;2023-08-01T00:44:24;16.50;99.90
29501;DHT22;16450;50.288;10.966;2023-08-01T00:47:26;16.50;99.90
29501;DHT22;16450;50.288;10.966;2023-08-01T00:50:28;16.40;99.90
29501;DHT22;16450;50.288;10.966;2023-08-01T00:53:30;16.40;99.90
29501;DHT22;16450;50.288;10.966;2023-08-01T00:56:33;16.40;99.90
29501;DHT22;16450;50.288;10.966;2023-08-01T00:59:35;16.40;99.90
29501;DHT22;16450;50.288;10.966;2023-08-01T01:02:37;16.40;99.90
29501;DHT22;16450;50.288;10.966;2023-08-01T01:06:26;16.30;99.90
29501;DHT22;16450;50.288;10.966;2023-08-01T01:09:17;16.30;99.90
29501;DHT22;16450;50.288;10.966;2023-08-01T01:12:20;16.30;99.90
29501;DHT22;16450;50.288;10.966;2023-08-01T01:15:22;16.30;99.90
29501;DHT22;16450;50.288;10.966;2023-08-01T01:18:23;16.20;99.90
29501;DHT22;16450;50.288;10.966;2023-08-01T01:21:25;16.20;99.90
29501;DHT22;16450;50.288;10.966;2023-08-01T01:24:28;16.20;99.90
29501;DHT22;16450;50.288;10.966;2023-08-01T01:27:30;16.20;99.90
29501;DHT22;16450;50.288;10.966;2023-08-01T01:30:33;16.20;99.90
29501;DHT22;16450;50.288;10.966;2023-08-01T01:33:35;16.10;99.90
29501;DHT22;16450;50.288;10.966;2023-08-01T01:36:37;16.10;99.90
29501;DHT22;16450;50.288;10.966;2023-08-01T01:39:40;16.10;99.90
29501;DHT22;16450;50.288;10.966;2023-08-01T01:42:42;16.10;99.90
29501;DHT22;16450;50.288;10.966;2023-08-01T01:45:44;16.10;99.90
29501;DHT22;16450;50.288;10.966;2023-08-01T01:48:46;16.00;99.90
29501;DHT22;16450;50.288;10.966;2023-08-01T01:51:48;16.00;99.90
29501;DHT22;16450;50.288;10.966;2023-08-01T01:54:50;16.00;99.90
29501;DHT22;16450;50.288;10.966;2023-08-01T01:57:52;16.00;99.90
29501;DHT22;16450;50.288;10.966;2023-08-01T02:00:58;16.00;99.90
29501;DHT22;16450;50.288;10.966;2023-08-01T02:03:59;16.00;99.90
29501;DHT22;16450;50.288;10.966;2023-08-01T02:07:01;16.00;99.90
29501;DHT22;16450;50.288;10.966;2023-08-01T02:10:05;16.00;99.90
29501;DHT22;16450;50.288;10.966;2023-08-01T02:13:07;16.00;99.90
29501;DHT22;16450;50.288;10.966;2023-08-01T02:16:10;16.00;99.90
29501;DHT22;16450;50.288;10.966;2023-08-01T02:19:12;15.90;99.90
29501;DHT22;16450;50.288;10.966;2023-08-01T02:22:14;15.90;99.90
29501;DHT22;16450;50.288;10.966;2023-08-01T02:25:16;15.90;99.90
29501;DHT22;16450;50.288;10.966;2023-08-01T02:28:18;15.90;99.90
29501;DHT22;16450;50.288;10.966;2023-08-01T02:31:20;15.90;99.90
29501;DHT22;16450;50.288;10.966;2023-08-01T02:34:22;15.90;99.90
29501;DHT22;16450;50.288;10.966;2023-08-01T02:37:24;15.90;99.90
29501;DHT22;16450;50.288;10.966;2023-08-01T02:40:26;15.90;99.90
29501;DHT22;16450;50.288;10.966;2023-08-01T02:43:28;15.80;99.90
29501;DHT22;16450;50.288;10.966;2023-08-01T02:46:30;15.80;99.90
29501;DHT22;16450;50.288;10.966;2023-08-01T02:49:33;15.80;99.90
29501;DHT22;16450;50.288;10.966;2023-08-01T02:52:34;15.80;99.90
29501;DHT22;16450;50.288;10.966;2023-08-01T02:55:36;15.80;99.90
29501;DHT22;16450;50.288;10.966;2023-08-01T02:58:38;15.80;99.90
29501;DHT22;16450;50.288;10.966;2023-08-01T03:01:40;15.80;99.90
29501;DHT22;16450;50.288;10.966;2023-08-01T03:04:42;15.80;99.90
29501;DHT22;16450;50.288;10.966;2023-08-01T03:07:48;15.80;99.90
29501;DHT22;16450;50.288;10.966;2023-08-01T03:10:50;15.80;99.90
29501;DHT22;16450;50.288;10.966;2023-08-01T03:13:52;15.80;99.90
29501;DHT22;16450;50.288;10.966;2023-08-01T03:16:54;15.80;99.90
29501;DHT22;16450;50.288;10.966;2023-08-01T03:19:55;15.80;99.90
29501;DHT22;16450;50.288;10.966;2023-08-01T03:22:57;15.90;99.90
29501;DHT22;16450;50.288;10.966;2023-08-01T03:25:59;15.90;99.90
29501;DHT22;16450;50.288;10.966;2023-08-01T03:29:01;15.80;99.90
29501;DHT22;16450;50.288;10.966;2023-08-01T03:32:04;15.80;99.90
29501;DHT22;16450;50.288;10.966;2023-08-01T03:35:06;15.80;99.90
29501;DHT22;16450;50.288;10.966;2023-08-01T03:38:08;15.80;99.90
29501;DHT22;16450;50.288;10.966;2023-08-01T03:41:10;15.90;99.90
29501;DHT22;16450;50.288;10.966;2023-08-01T03:44:12;15.80;99.90
29501;DHT22;16450;50.288;10.966;2023-08-01T03:47:14;15.80;99.90
29501;DHT22;16450;50.288;10.966;2023-08-01T03:50:16;15.80;99.90
29501;DHT22;16450;50.288;10.966;2023-08-01T03:53:18;15.90;99.90
29501;DHT22;16450;50.288;10.966;2023-08-01T03:56:20;15.90;99.90
29501;DHT22;16450;50.288;10.966;2023-08-01T03:59:22;15.80;99.90
29501;DHT22;16450;50.288;10.966;2023-08-01T04:02:24;15.90;99.90
29501;DHT22;16450;50.288;10.966;2023-08-01T04:05:27;15.90;99.90
29501;DHT22;16450;50.288;10.966;2023-08-01T04:08:29;15.80;99.90
29501;DHT22;16450;50.288;10.966;2023-08-01T04:11:31;15.90;99.90
29501;DHT22;16450;50.288;10.966;2023-08-01T04:14:34;15.90;99.90
29501;DHT22;16450;50.288;10.966;2023-08-01T04:17:36;15.90;99.90
29501;DHT22;16450;50.288;10.966;2023-08-01T04:20:38;15.90;99.90
29501;DHT22;16450;50.288;10.966;2023-08-01T04:23:41;15.90;99.90
29501;DHT22;16450;50.288;10.966;2023-08-01T04:26:43;15.90;99.90
29501;DHT22;16450;50.288;10.966;2023-08-01T04:29:44;15.90;99.90
29501;DHT22;16450;50.288;10.966;2023-08-01T04:32:47;15.90;99.90
29501;DHT22;16450;50.288;10.966;2023-08-01T04:35:49;15.90;99.90
29501;DHT22;16450;50.288;10.966;2023-08-01T04:38:51;15.90;99.90
29501;DHT22;16450;50.288;10.966;2023-08-01T04:41:52;15.90;99.90
29501;DHT22;16450;50.288;10.966;2023-08-01T04:44:55;15.90;99.90
29501;DHT22;16450;50.288;10.966;2023-08-01T04:47:58;15.90;99.90
29501;DHT22;16450;50.288;10.966;2023-08-01T04:51:00;15.80;99.90
29501;DHT22;16450;50.288;10.966;2023-08-01T04:54:02;15.80;99.90
29501;DHT22;16450;50.288;10.966;2023-08-01T04:57:04;15.90;99.90
29501;DHT22;16450;50.288;10.966;2023-08-01T05:00:09;15.90;99.90
29501;DHT22;16450;50.288;10.966;2023-08-01T05:03:11;15.90;99.90
29501;DHT22;16450;50.288;10.966;2023-08-01T05:06:14;15.90;99.90
29501;DHT22;16450;50.288;10.966;2023-08-01T05:09:16;15.90;99.90
29501;DHT22;16450;50.288;10.966;2023-08-01T05:12:18;15.90;99.90
29501;DHT22;16450;50.288;10.966;2023-08-01T05:15:20;15.90;99.90
29501;DHT22;16450;50.288;10.966;2023-08-01T05:18:22;15.90;99.90
29501;DHT22;16450;50.288;10.966;2023-08-01T05:21:24;15.90;99.90
29501;DHT22;16450;50.288;10.966;2023-08-01T05:24:27;15.90;99.90
29501;DHT22;16450;50.288;10.966;2023-08-01T05:27:29;16.00;99.90
29501;DHT22;16450;50.288;10.966;2023-08-01T05:30:30;15.90;99.90
29501;DHT22;16450;50.288;10.966;2023-08-01T05:33:32;15.90;99.90
29501;DHT22;16450;50.288;10.966;2023-08-01T05:36:34;16.00;99.90
29501;DHT22;16450;50.288;10.966;2023-08-01T05:39:36;15.90;99.90
29501;DHT22;16450;50.288;10.966;2023-08-01T05:42:38;15.90;99.90
29501;DHT22;16450;50.288;10.966;2023-08-01T05:45:40;15.90;99.90
29501;DHT22;16450;50.288;10.966;2023-08-01T05:48:42;16.00;99.90
29501;DHT22;16450;50.288;10.966;2023-08-01T05:51:44;16.00;99.90
29501;DHT22;16450;50.288;10.966;2023-08-01T05:54:46;16.00;99.90
29501;DHT22;16450;50.288;10.966;2023-08-01T05:57:48;15.90;99.90
29501;DHT22;16450;50.288;10.966;2023-08-01T06:00:54;15.90;99.90
29501;DHT22;16450;50.288;10.966;2023-08-01T06:03:56;15.90;99.90
29501;DHT22;16450;50.288;10.966;2023-08-01T06:06:59;16.00;99.90
29501;DHT22;16450;50.288;10.966;2023-08-01T06:10:01;16.00;99.90
29501;DHT22;16450;50.288;10.966;2023-08-01T06:13:03;16.00;99.90
29501;DHT22;16450;50.288;10.966;2023-08-01T06:16:05;16.00;99.90
29501;DHT22;16450;50.288;10.966;2023-08-01T06:19:07;16.10;99.90
29501;DHT22;16450;50.288;10.966;2023-08-01T06:22:09;16.10;99.90
29501;DHT22;16450;50.288;10.966;2023-08-01T06:25:10;16.10;99.90
29501;DHT22;16450;50.288;10.966;2023-08-01T06:28:12;16.10;99.90
29501;DHT22;16450;50.288;10.966;2023-08-01T06:31:14;16.10;99.90
29501;DHT22;16450;50.288;10.966;2023-08-01T06:34:16;16.10;99.90
29501;DHT22;16450;50.288;10.966;2023-08-01T06:37:18;16.10;99.90
29501;DHT22;16450;50.288;10.966;2023-08-01T06:40:20;16.10;99.90
29501;DHT22;16450;50.288;10.966;2023-08-01T06:43:22;16.20;99.90
29501;DHT22;16450;50.288;10.966;2023-08-01T06:46:26;16.10;99.90
29501;DHT22;16450;50.288;10.966;2023-08-01T06:49:28;16.20;99.90
29501;DHT22;16450;50.288;10.966;2023-08-01T06:52:30;16.20;99.90
29501;DHT22;16450;50.288;10.966;2023-08-01T06:55:32;16.20;99.90
29501;DHT22;16450;50.288;10.966;2023-08-01T06:58:34;16.20;99.90
29501;DHT22;16450;50.288;10.966;2023-08-01T07:01:36;16.20;99.90
29501;DHT22;16450;50.288;10.966;2023-08-01T07:04:42;16.20;99.90
29501;DHT22;16450;50.288;10.966;2023-08-01T07:07:44;16.20;99.90
29501;DHT22;16450;50.288;10.966;2023-08-01T07:10:46;16.20;99.90
29501;DHT22;16450;50.288;10.966;2023-08-01T07:13:47;16.20;99.90
29501;DHT22;16450;50.288;10.966;2023-08-01T07:16:49;16.20;99.90
29501;DHT22;16450;50.288;10.966;2023-08-01T07:19:51;16.20;99.90
29501;DHT22;16450;50.288;10.966;2023-08-01T07:22:53;16.20;99.90
29501;DHT22;16450;50.288;10.966;2023-08-01T07:25:55;16.20;99.90
29501;DHT22;16450;50.288;10.966;2023-08-01T07:28:57;16.20;99.90
29501;DHT22;16450;50.288;10.966;2023-08-01T07:31:59;16.20;99.90
29501;DHT22;16450;50.288;10.966;2023-08-01T07:35:01;16.20;99.90
29501;DHT22;16450;50.288;10.966;2023-08-01T07:38:03;16.20;99.90
29501;DHT22;16450;50.288;10.966;2023-08-01T07:41:07;16.20;99.90
29501;DHT22;16450;50.288;10.966;2023-08-01T07:44:09;16.20;99.90
29501;DHT22;16450;50.288;10.966;2023-08-01T07:47:11;16.20;99.90
29501;DHT22;16450;50.288;10.966;2023-08-01T07:50:13;16.20;99.90
29501;DHT22;16450;50.288;10.966;2023-08-01T07:53:15;16.20;99.90
29501;DHT22;16450;50.288;10.966;2023-08-01T07:56:17;16.20;99.90
29501;DHT22;16450;50.288;10.966;2023-08-01T07:59:19;16.10;99.90
29501;DHT22;16450;50.288;10.966;2023-08-01T08:02:21;16.10;99.90
29501;DHT22;16450;50.288;10.966;2023-08-01T08:05:23;16.10;99.90
29501;DHT22;16450;50.288;10.966;2023-08-01T08:08:25;16.10;99.90
29501;DHT22;16450;50.288;10.966;2023-08-01T08:11:28;16.00;99.90
29501;DHT22;16450;50.288;10.966;2023-08-01T08:14:30;16.00;99.90
29501;DHT22;16450;50.288;10.966;2023-08-01T08:17:32;16.00;99.90
29501;DHT22;16450;50.288;10.966;2023-08-01T08:20:43;16.00;99.90
29501;DHT22;16450;50.288;10.966;2023-08-01T08:23:46;16.00;99.90
29501;DHT22;16450;50.288;10.966;2023-08-01T08:26:48;16.10;99.90
29501;DHT22;16450;50.288;10.966;2023-08-01T08:29:50;16.10;99.90
29501;DHT22;16450;50.288;10.966;2023-08-01T08:32:52;16.10;99.90
29501;DHT22;16450;50.288;10.966;2023-08-01T08:35:54;16.10;99.90
29501;DHT22;16450;50.288;10.966;2023-08-01T08:38:56;16.20;99.90
29501;DHT22;16450;50.288;10.966;2023-08-01T08:42:00;16.30;99.90
29501;DHT22;16450;50.288;10.966;2023-08-01T08:45:02;16.30;99.90
29501;DHT22;16450;50.288;10.966;2023-08-01T08:48:13;16.30;99.90
29501;DHT22;16450;50.288;10.966;2023-08-01T08:51:19;16.30;99.90
29501;DHT22;16450;50.288;10.966;2023-08-01T08:54:23;16.40;99.90
29501;DHT22;16450;50.288;10.966;2023-08-01T08:57:25;16.50;99.90
29501;DHT22;16450;50.288;10.966;2023-08-01T09:00:28;16.60;99.90
29501;DHT22;16450;50.288;10.966;2023-08-01T09:03:30;16.60;99.90
29501;DHT22;16450;50.288;10.966;2023-08-01T09:06:48;16.70;99.90
29501;DHT22;16450;50.288;10.966;2023-08-01T09:09:52;16.70;99.90
29501;DHT22;16450;50.288;10.966;2023-08-01T09:12:54;16.70;99.90
29501;DHT22;16450;50.288;10.966;2023-08-01T09:15:57;16.80;99.90
29501;DHT22;16450;50.288;10.966;2023-08-01T09:18:58;16.90;99.90
29501;DHT22;16450;50.288;10.966;2023-08-01T09:22:01;17.00;99.90
29501;DHT22;16450;50.288;10.966;2023-08-01T09:25:03;17.10;99.90
29501;DHT22;16450;50.288;10.966;2023-08-01T09:28:19;17.20;99.90
29501;DHT22;16450;50.288;10.966;2023-08-01T09:31:30;17.20;99.90
29501;DHT22;16450;50.288;10.966;2023-08-01T09:34:32;17.20;99.90
29501;DHT22;16450;50.288;10.966;2023-08-01T09:37:41;17.20;99.90
29501;DHT22;16450;50.288;10.966;2023-08-01T09:40:44;17.20;99.90
29501;DHT22;16450;50.288;10.966;2023-08-01T09:43:47;17.20;99.90
29501;DHT22;16450;50.288;10.966;2023-08-01T09:47:00;17.10;99.90
29501;DHT22;16450;50.288;10.966;2023-08-01T09:50:02;17.10;99.90
29501;DHT22;16450;50.288;10.966;2023-08-01T09:53:07;17.10;99.90
29501;DHT22;16450;50.288;10.966;2023-08-01T09:56:09;17.10;99.90
29501;DHT22;16450;50.288;10.966;2023-08-01T09:59:13;17.20;99.90
29501;DHT22;16450;50.288;10.966;2023-08-01T10:02:20;17.20;99.90
29501;DHT22;16450;50.288;10.966;2023-08-01T10:05:24;17.40;99.90
29501;DHT22;16450;50.288;10.966;2023-08-01T10:08:29;17.40;99.90
29501;DHT22;16450;50.288;10.966;2023-08-01T10:11:34;17.50;99.90
29501;DHT22;16450;50.288;10.966;2023-08-01T10:14:37;17.60;99.90
29501;DHT22;16450;50.288;10.966;2023-08-01T10:17:41;17.60;99.90
29501;DHT22;16450;50.288;10.966;2023-08-01T10:20:43;17.70;99.90
29501;DHT22;16450;50.288;10.966;2023-08-01T10:23:46;17.80;99.90
29501;DHT22;16450;50.288;10.966;2023-08-01T10:26:48;18.00;99.90
29501;DHT22;16450;50.288;10.966;2023-08-01T10:30:00;18.10;99.90
29501;DHT22;16450;50.288;10.966;2023-08-01T10:33:02;18.10;99.90
29501;DHT22;16450;50.288;10.966;2023-08-01T10:36:18;18.20;99.90
29501;DHT22;16450;50.288;10.966;2023-08-01T10:39:24;18.40;99.90
29501;DHT22;16450;50.288;10.966;2023-08-01T10:42:38;18.30;99.90
29501;DHT22;16450;50.288;10.966;2023-08-01T10:45:40;18.30;99.90
29501;DHT22;16450;50.288;10.966;2023-08-01T10:48:52;18.30;99.90
29501;DHT22;16450;50.288;10.966;2023-08-01T10:51:54;18.40;99.90
29501;DHT22;16450;50.288;10.966;2023-08-01T10:55:01;18.50;99.90
29501;DHT22;16450;50.288;10.966;2023-08-01T10:58:04;18.60;99.90
29501;DHT22;16450;50.288;10.966;2023-08-01T11:01:06;18.80;99.90
29501;DHT22;16450;50.288;10.966;2023-08-01T11:04:18;18.90;99.90
29501;DHT22;16450;50.288;10.966;2023-08-01T11:07:21;19.10;99.90
29501;DHT22;16450;50.288;10.966;2023-08-01T11:10:28;19.30;99.90
29501;DHT22;16450;50.288;10.966;2023-08-01T11:13:30;19.50;99.90
29501;DHT22;16450;50.288;10.966;2023-08-01T11:16:32;19.60;99.90
29501;DHT22;16450;50.288;10.966;2023-08-01T11:19:34;19.70;99.90
29501;DHT22;16450;50.288;10.966;2023-08-01T11:22:37;19.70;99.90
29501;DHT22;16450;50.288;10.966;2023-08-01T11:25:41;19.70;99.90
29501;DHT22;16450;50.288;10.966;2023-08-01T11:28:44;19.80;99.90
29501;DHT22;16450;50.288;10.966;2023-08-01T11:31:57;19.70;99.90
29501;DHT22;16450;50.288;10.966;2023-08-01T11:34:59;19.70;99.90
29501;DHT22;16450;50.288;10.966;2023-08-01T11:38:01;19.80;99.90
29501;DHT22;16450;50.288;10.966;2023-08-01T11:41:04;19.90;99.90
29501;DHT22;16450;50.288;10.966;2023-08-01T11:44:06;20.00;99.90
29501;DHT22;16450;50.288;10.966;2023-08-01T11:47:15;20.10;99.90
29501;DHT22;16450;50.288;10.966;2023-08-01T11:50:22;20.30;99.90
29501;DHT22;16450;50.288;10.966;2023-08-01T11:53:25;20.50;99.90
29501;DHT22;16450;50.288;10.966;2023-08-01T11:56:27;20.60;99.90
29501;DHT22;16450;50.288;10.966;2023-08-01T11:59:29;20.80;99.90
29501;DHT22;16450;50.288;10.966;2023-08-01T12:02:31;20.90;99.90
29501;DHT22;16450;50.288;10.966;2023-08-01T12:05:33;21.10;99.90
29501;DHT22;16450;50.288;10.966;2023-08-01T12:08:35;21.20;99.90
29501;DHT22;16450;50.288;10.966;2023-08-01T12:11:38;21.20;99.90
29501;DHT22;16450;50.288;10.966;2023-08-01T12:14:41;21.20;99.90
29501;DHT22;16450;50.288;10.966;2023-08-01T12:17:43;21.30;99.90
29501;DHT22;16450;50.288;10.966;2023-08-01T12:20:45;21.40;99.90
29501;DHT22;16450;50.288;10.966;2023-08-01T12:23:47;21.40;99.90
29501;DHT22;16450;50.288;10.966;2023-08-01T12:26:49;21.50;99.90
29501;DHT22;16450;50.288;10.966;2023-08-01T12:29:51;21.50;99.90
29501;DHT22;16450;50.288;10.966;2023-08-01T12:32:53;21.50;99.90
29501;DHT22;16450;50.288;10.966;2023-08-01T12:35:55;21.60;99.90
29501;DHT22;16450;50.288;10.966;2023-08-01T12:38:57;21.60;99.90
29501;DHT22;16450;50.288;10.966;2023-08-01T12:41:59;21.60;99.90
29501;DHT22;16450;50.288;10.966;2023-08-01T12:45:02;21.70;99.90
29501;DHT22;16450;50.288;10.966;2023-08-01T12:48:05;21.70;99.90
29501;DHT22;16450;50.288;10.966;2023-08-01T12:51:07;21.70;99.90
29501;DHT22;16450;50.288;10.966;2023-08-01T12:54:10;21.70;99.90
29501;DHT22;16450;50.288;10.966;2023-08-01T12:57:12;21.70;99.90
29501;DHT22;16450;50.288;10.966;2023-08-01T13:00:14;21.70;99.90
29501;DHT22;16450;50.288;10.966;2023-08-01T13:03:16;21.60;99.90
29501;DHT22;16450;50.288;10.966;2023-08-01T13:06:18;21.50;99.90
29501;DHT22;16450;50.288;10.966;2023-08-01T13:09:20;21.30;99.90
29501;DHT22;16450;50.288;10.966;2023-08-01T13:12:22;21.00;99.90
29501;DHT22;16450;50.288;10.966;2023-08-01T13:15:24;20.70;99.90
29501;DHT22;16450;50.288;10.966;2023-08-01T13:18:26;20.40;99.90
29501;DHT22;16450;50.288;10.966;2023-08-01T13:21:28;20.10;99.90
29501;DHT22;16450;50.288;10.966;2023-08-01T13:24:30;19.80;99.90
29501;DHT22;16450;50.288;10.966;2023-08-01T13:27:35;19.70;99.90
29501;DHT22;16450;50.288;10.966;2023-08-01T13:30:37;19.40;99.90
29501;DHT22;16450;50.288;10.966;2023-08-01T13:33:39;19.30;99.90
29501;DHT22;16450;50.288;10.966;2023-08-01T13:36:41;19.00;99.90
29501;DHT22;16450;50.288;10.966;2023-08-01T13:39:43;19.10;99.90
29501;DHT22;16450;50.288;10.966;2023-08-01T13:42:47;19.00;99.90
29501;DHT22;16450;50.288;10.966;2023-08-01T13:45:49;19.10;99.90
29501;DHT22;16450;50.288;10.966;2023-08-01T13:48:55;19.10;99.90
29501;DHT22;16450;50.288;10.966;2023-08-01T13:51:57;19.30;99.90
29501;DHT22;16450;50.288;10.966;2023-08-01T13:54:58;19.40;99.90
29501;DHT22;16450;50.288;10.966;2023-08-01T13:58:02;19.60;99.90
29501;DHT22;16450;50.288;10.966;2023-08-01T14:01:08;19.80;99.90
29501;DHT22;16450;50.288;10.966;2023-08-01T14:04:10;20.00;99.90
29501;DHT22;16450;50.288;10.966;2023-08-01T14:07:15;20.10;99.90
29501;DHT22;16450;50.288;10.966;2023-08-01T14:10:17;20.30;99.90
29501;DHT22;16450;50.288;10.966;2023-08-01T14:13:19;20.40;99.90
29501;DHT22;16450;50.288;10.966;2023-08-01T14:16:20;20.60;99.90
29501;DHT22;16450;50.288;10.966;2023-08-01T14:19:23;20.80;99.90
29501;DHT22;16450;50.288;10.966;2023-08-01T14:22:25;21.00;99.90
29501;DHT22;16450;50.288;10.966;2023-08-01T14:25:26;21.20;99.90
29501;DHT22;16450;50.288;10.966;2023-08-01T14:28:31;21.40;99.90
29501;DHT22;16450;50.288;10.966;2023-08-01T14:31:34;21.40;99.90
29501;DHT22;16450;50.288;10.966;2023-08-01T14:34:36;21.50;99.90
29501;DHT22;16450;50.288;10.966;2023-08-01T14:37:39;21.60;99.90
29501;DHT22;16450;50.288;10.966;2023-08-01T14:40:44;21.70;99.90
29501;DHT22;16450;50.288;10.966;2023-08-01T14:44:02;21.70;99.90
29501;DHT22;16450;50.288;10.966;2023-08-01T14:47:04;21.70;99.90
29501;DHT22;16450;50.288;10.966;2023-08-01T14:50:07;21.70;99.90
29501;DHT22;16450;50.288;10.966;2023-08-01T14:53:09;21.70;99.90
29501;DHT22;16450;50.288;10.966;2023-08-01T14:56:10;21.60;99.90
29501;DHT22;16450;50.288;10.966;2023-08-01T14:59:13;21.60;99.90
29501;DHT22;16450;50.288;10.966;2023-08-01T15:02:15;21.50;99.90
29501;DHT22;16450;50.288;10.966;2023-08-01T15:05:17;21.50;99.90
29501;DHT22;16450;50.288;10.966;2023-08-01T15:08:19;21.40;99.90
29501;DHT22;16450;50.288;10.966;2023-08-01T15:11:21;21.20;99.90
29501;DHT22;16450;50.288;10.966;2023-08-01T15:14:23;21.10;99.90
29501;DHT22;16450;50.288;10.966;2023-08-01T15:17:25;20.80;99.90
29501;DHT22;16450;50.288;10.966;2023-08-01T15:20:27;20.70;99.90
29501;DHT22;16450;50.288;10.966;2023-08-01T15:23:29;20.50;99.90
29501;DHT22;16450;50.288;10.966;2023-08-01T15:26:31;20.40;99.90
29501;DHT22;16450;50.288;10.966;2023-08-01T15:29:33;20.30;99.90
29501;DHT22;16450;50.288;10.966;2023-08-01T15:32:35;20.20;99.90
29501;DHT22;16450;50.288;10.966;2023-08-01T15:35:37;20.20;99.90
29501;DHT22;16450;50.288;10.966;2023-08-01T15:38:39;20.20;99.90
29501;DHT22;16450;50.288;10.966;2023-08-01T15:41:42;20.20;99.90
29501;DHT22;16450;50.288;10.966;2023-08-01T15:44:44;20.20;99.90
29501;DHT22;16450;50.288;10.966;2023-08-01T15:47:46;20.20;99.90
29501;DHT22;16450;50.288;10.966;2023-08-01T15:50:48;20.30;99.90
29501;DHT22;16450;50.288;10.966;2023-08-01T15:53:50;20.40;99.90
29501;DHT22;16450;50.288;10.966;2023-08-01T15:56:52;20.50;99.90
29501;DHT22;16450;50.288;10.966;2023-08-01T15:59:54;20.50;99.90
29501;DHT22;16450;50.288;10.966;2023-08-01T16:02:56;20.50;99.90
29501;DHT22;16450;50.288;10.966;2023-08-01T16:05:58;20.50;99.90
29501;DHT22;16450;50.288;10.966;2023-08-01T16:09:00;20.40;99.90
29501;DHT22;16450;50.288;10.966;2023-08-01T16:12:02;20.40;99.90
29501;DHT22;16450;50.288;10.966;2023-08-01T16:15:04;20.30;99.90
29501;DHT22;16450;50.288;10.966;2023-08-01T16:18:07;20.30;99.90
29501;DHT22;16450;50.288;10.966;2023-08-01T16:21:09;20.30;99.90
29501;DHT22;16450;50.288;10.966;2023-08-01T16:24:11;20.20;99.90
29501;DHT22;16450;50.288;10.966;2023-08-01T16:27:13;20.20;99.90
29501;DHT22;16450;50.288;10.966;2023-08-01T16:30:15;20.20;99.90
29501;DHT22;16450;50.288;10.966;2023-08-01T16:33:17;20.20;99.90
29501;DHT22;16450;50.288;10.966;2023-08-01T16:36:19;20.20;99.90
29501;DHT22;16450;50.288;10.966;2023-08-01T16:39:21;20.20;99.90
29501;DHT22;16450;50.288;10.966;2023-08-01T16:42:23;20.20;99.90
29501;DHT22;16450;50.288;10.966;2023-08-01T16:45:25;20.20;99.90
29501;DHT22;16450;50.288;10.966;2023-08-01T16:48:26;20.20;99.90
29501;DHT22;16450;50.288;10.966;2023-08-01T16:51:28;20.20;99.90
29501;DHT22;16450;50.288;10.966;2023-08-01T16:54:30;20.30;99.90
29501;DHT22;16450;50.288;10.966;2023-08-01T16:57:32;20.30;99.90
29501;DHT22;16450;50.288;10.966;2023-08-01T17:00:34;20.30;99.90
29501;DHT22;16450;50.288;10.966;2023-08-01T17:03:36;20.30;99.90
29501;DHT22;16450;50.288;10.966;2023-08-01T17:06:39;20.20;99.90
29501;DHT22;16450;50.288;10.966;2023-08-01T17:09:41;20.20;99.90
29501;DHT22;16450;50.288;10.966;2023-08-01T17:12:43;20.20;99.90
29501;DHT22;16450;50.288;10.966;2023-08-01T17:15:45;20.10;99.90
29501;DHT22;16450;50.288;10.966;2023-08-01T17:18:47;20.10;99.90
29501;DHT22;16450;50.288;10.966;2023-08-01T17:21:49;20.10;99.90
29501;DHT22;16450;50.288;10.966;2023-08-01T17:24:51;20.00;99.90
29501;DHT22;16450;50.288;10.966;2023-08-01T17:27:52;19.90;99.90
29501;DHT22;16450;50.288;10.966;2023-08-01T17:31:05;19.90;99.90
29501;DHT22;16450;50.288;10.966;2023-08-01T17:34:07;19.90;99.90
29501;DHT22;16450;50.288;10.966;2023-08-01T17:37:10;19.80;99.90
29501;DHT22;16450;50.288;10.966;2023-08-01T17:40:12;19.70;99.90
29501;DHT22;16450;50.288;10.966;2023-08-01T17:43:14;19.60;99.90
29501;DHT22;16450;50.288;10.966;2023-08-01T17:46:16;19.60;99.90
29501;DHT22;16450;50.288;10.966;2023-08-01T17:49:21;19.60;99.90
29501;DHT22;16450;50.288;10.966;2023-08-01T17:52:24;19.60;99.90
29501;DHT22;16450;50.288;10.966;2023-08-01T17:55:27;19.60;99.90
29501;DHT22;16450;50.288;10.966;2023-08-01T17:58:31;19.60;99.90
29501;DHT22;16450;50.288;10.966;2023-08-01T18:01:32;19.60;99.90
29501;DHT22;16450;50.288;10.966;2023-08-01T18:04:36;19.60;99.90
29501;DHT22;16450;50.288;10.966;2023-08-01T18:07:40;19.60;99.90
29501;DHT22;16450;50.288;10.966;2023-08-01T18:10:42;19.50;99.90
29501;DHT22;16450;50.288;10.966;2023-08-01T18:13:45;19.50;99.90
29501;DHT22;16450;50.288;10.966;2023-08-01T18:16:47;19.40;99.90
29501;DHT22;16450;50.288;10.966;2023-08-01T18:19:49;19.30;99.90
29501;DHT22;16450;50.288;10.966;2023-08-01T18:22:51;19.30;99.90
29501;DHT22;16450;50.288;10.966;2023-08-01T18:25:53;19.30;99.90
29501;DHT22;16450;50.288;10.966;2023-08-01T18:28:55;19.20;99.90
29501;DHT22;16450;50.288;10.966;2023-08-01T18:31:57;19.10;99.90
29501;DHT22;16450;50.288;10.966;2023-08-01T18:34:59;19.10;99.90
29501;DHT22;16450;50.288;10.966;2023-08-01T18:38:01;19.00;99.90
29501;DHT22;16450;50.288;10.966;2023-08-01T18:41:03;19.00;99.90
29501;DHT22;16450;50.288;10.966;2023-08-01T18:44:05;18.90;99.90
29501;DHT22;16450;50.288;10.966;2023-08-01T18:47:07;18.90;99.90
29501;DHT22;16450;50.288;10.966;2023-08-01T18:50:09;18.90;99.90
29501;DHT22;16450;50.288;10.966;2023-08-01T18:53:11;18.80;99.90
29501;DHT22;16450;50.288;10.966;2023-08-01T18:56:15;18.80;99.90